Time;durP1;ratioP1;P1;durP2;ratioP2;P2;SDS_P1;SDS_P2;PMS_P1;PMS_P2;Temp;Humidity;BMP_temperature;BMP_pressure;BME280_temperature;BME280_humidity;BME280_pressure;Samples;Min_cycle;Max_cycle;Signal;HPM_P1;HPM_P2
2021/09/16 00:01:14;;;;;;;;;;;17.40;95.90;;;;;;4978597;28;20183;-75
2021/09/16 00:03:39;;;;;;;;;;;17.40;95.90;;;;;;4976173;28;19998;-73
2021/09/16 00:06:05;;;;;;;;;;;17.40;95.80;;;;;;4997287;28;19962;-76
2021/09/16 00:08:30;;;;;;;;;;;17.40;95.80;;;;;;4973916;28;19954;-75
2021/09/16 00:10:56;;;;;;;;;;;17.40;95.80;;;;;;4987807;28;19961;-76
2021/09/16 00:13:21;;;;;;;;;;;17.40;95.70;;;;;;4979751;28;20323;-75
2021/09/16 00:15:47;;;;;;;;;;;17.40;95.80;;;;;;4995170;28;20195;-75
2021/09/16 00:18:13;;;;;;;;;;;17.40;95.80;;;;;;5004564;28;19976;-75
2021/09/16 00:20:38;;;;;;;;;;;17.40;95.80;;;;;;4994028;28;19982;-77
2021/09/16 00:23:04;;;;;;;;;;;17.40;95.80;;;;;;4963856;28;19956;-76
2021/09/16 00:25:29;;;;;;;;;;;17.50;96.00;;;;;;4977457;28;20001;-75
2021/09/16 00:27:55;;;;;;;;;;;17.50;95.90;;;;;;4977252;28;19952;-74
2021/09/16 00:30:20;;;;;;;;;;;17.40;95.90;;;;;;5008092;28;20057;-75
2021/09/16 00:32:46;;;;;;;;;;;17.40;95.90;;;;;;4973701;28;20063;-75
2021/09/16 00:35:12;;;;;;;;;;;17.40;95.90;;;;;;4976107;28;20470;-74
2021/09/16 00:37:37;;;;;;;;;;;17.40;95.80;;;;;;4976742;28;20202;-75
2021/09/16 00:40:04;;;;;;;;;;;17.50;95.80;;;;;;4978845;28;20425;-75
2021/09/16 00:42:29;;;;;;;;;;;17.40;95.70;;;;;;4986618;28;20424;-75
2021/09/16 00:44:55;;;;;;;;;;;17.40;95.70;;;;;;4960548;28;19959;-75
2021/09/16 00:47:20;;;;;;;;;;;17.40;95.70;;;;;;4974485;28;19948;-73
2021/09/16 00:49:46;;;;;;;;;;;17.40;95.70;;;;;;4972057;28;19948;-75
2021/09/16 00:52:12;;;;;;;;;;;17.40;95.70;;;;;;4973287;28;19987;-73
2021/09/16 00:54:39;;;;;;;;;;;17.40;95.70;;;;;;4978967;28;19963;-73
2021/09/16 00:57:05;;;;;;;;;;;17.40;95.80;;;;;;4981605;28;19960;-72
2021/09/16 00:59:31;;;;;;;;;;;17.40;95.80;;;;;;4972656;28;19973;-74
2021/09/16 01:01:56;;;;;;;;;;;17.40;95.80;;;;;;4971576;28;20058;-75
2021/09/16 01:04:22;;;;;;;;;;;17.40;95.90;;;;;;4978024;28;19955;-74
2021/09/16 01:06:48;;;;;;;;;;;17.40;96.00;;;;;;4973409;28;19964;-75
2021/09/16 01:09:13;;;;;;;;;;;17.40;96.10;;;;;;4971595;28;19951;-74
2021/09/16 01:11:39;;;;;;;;;;;17.40;96.20;;;;;;4971115;28;19959;-72
2021/09/16 01:14:06;;;;;;;;;;;17.40;96.30;;;;;;4973618;28;19992;-75
2021/09/16 01:16:32;;;;;;;;;;;17.40;96.40;;;;;;4970913;28;20011;-74
2021/09/16 01:18:57;;;;;;;;;;;17.40;96.50;;;;;;4973930;28;19999;-74
2021/09/16 01:21:23;;;;;;;;;;;17.40;96.60;;;;;;4983027;28;19963;-74
2021/09/16 01:23:49;;;;;;;;;;;17.40;96.70;;;;;;4984789;28;20015;-74
2021/09/16 01:26:15;;;;;;;;;;;17.40;96.80;;;;;;4968398;28;19949;-74
2021/09/16 01:28:40;;;;;;;;;;;17.40;96.90;;;;;;4992161;28;19952;-75
2021/09/16 01:31:06;;;;;;;;;;;17.40;97.00;;;;;;4974456;28;19948;-74
2021/09/16 01:33:31;;;;;;;;;;;17.40;97.10;;;;;;4980885;28;19971;-73
2021/09/16 01:35:57;;;;;;;;;;;17.50;97.20;;;;;;5006573;28;19954;-72
2021/09/16 01:38:22;;;;;;;;;;;17.50;97.30;;;;;;4971824;28;20039;-74
2021/09/16 01:40:48;;;;;;;;;;;17.40;97.30;;;;;;4971313;28;19956;-75
2021/09/16 01:43:14;;;;;;;;;;;17.50;97.40;;;;;;4983773;28;19956;-76
2021/09/16 01:45:40;;;;;;;;;;;17.50;97.50;;;;;;4977695;28;20439;-73
2021/09/16 01:48:05;;;;;;;;;;;17.40;97.50;;;;;;4988538;28;19947;-72
2021/09/16 01:50:31;;;;;;;;;;;17.50;97.70;;;;;;5005525;28;19947;-75
2021/09/16 01:52:57;;;;;;;;;;;17.50;97.70;;;;;;4965364;28;19975;-74
2021/09/16 01:55:23;;;;;;;;;;;17.50;97.80;;;;;;4974310;28;20380;-76
2021/09/16 01:57:48;;;;;;;;;;;17.40;97.80;;;;;;4971194;28;19956;-75
2021/09/16 02:00:14;;;;;;;;;;;17.40;97.80;;;;;;4985079;28;19971;-73
2021/09/16 02:02:41;;;;;;;;;;;17.40;97.90;;;;;;4976145;28;19951;-74
2021/09/16 02:05:07;;;;;;;;;;;17.40;97.90;;;;;;4973961;28;20360;-74
2021/09/16 02:07:33;;;;;;;;;;;17.40;98.00;;;;;;4970330;28;19998;-72
2021/09/16 02:09:58;;;;;;;;;;;17.40;98.00;;;;;;4968830;28;19957;-73
2021/09/16 02:12:24;;;;;;;;;;;17.40;98.10;;;;;;4988460;28;19958;-74
2021/09/16 02:14:49;;;;;;;;;;;17.50;98.10;;;;;;4979293;28;19954;-74
2021/09/16 02:17:15;;;;;;;;;;;17.40;98.10;;;;;;5002325;28;19947;-75
2021/09/16 02:19:40;;;;;;;;;;;17.50;98.20;;;;;;5000372;28;19958;-75
2021/09/16 02:22:06;;;;;;;;;;;17.50;98.30;;;;;;4990734;28;19955;-73
2021/09/16 02:24:32;;;;;;;;;;;17.50;98.30;;;;;;4976289;28;19961;-74
2021/09/16 02:26:57;;;;;;;;;;;17.40;98.30;;;;;;4975194;28;19949;-75
2021/09/16 02:29:23;;;;;;;;;;;17.50;98.40;;;;;;4984018;28;19952;-75
2021/09/16 02:31:48;;;;;;;;;;;17.50;98.40;;;;;;4973294;28;19961;-74
2021/09/16 02:34:14;;;;;;;;;;;17.50;98.40;;;;;;4969635;28;19954;-74
2021/09/16 02:36:40;;;;;;;;;;;17.50;98.50;;;;;;4969881;28;20000;-76
2021/09/16 02:39:05;;;;;;;;;;;17.40;98.50;;;;;;4996680;28;20035;-74
2021/09/16 02:41:31;;;;;;;;;;;17.50;98.50;;;;;;4979179;28;19949;-73
2021/09/16 02:43:56;;;;;;;;;;;17.50;98.50;;;;;;4972780;28;19949;-75
2021/09/16 02:46:22;;;;;;;;;;;17.50;98.60;;;;;;4969204;28;19956;-74
2021/09/16 02:48:48;;;;;;;;;;;17.50;98.60;;;;;;4969958;28;19986;-75
2021/09/16 02:51:13;;;;;;;;;;;17.40;98.50;;;;;;4969192;28;19960;-74
2021/09/16 02:53:39;;;;;;;;;;;17.40;98.50;;;;;;4974537;28;20004;-74
2021/09/16 02:56:05;;;;;;;;;;;17.40;98.50;;;;;;4993087;28;20028;-73
2021/09/16 02:58:30;;;;;;;;;;;17.40;98.50;;;;;;4984467;28;19952;-73
2021/09/16 03:00:56;;;;;;;;;;;17.40;98.60;;;;;;4968862;28;19965;-74
2021/09/16 03:03:21;;;;;;;;;;;17.40;98.60;;;;;;4961960;28;20718;-75
2021/09/16 03:05:47;;;;;;;;;;;17.40;98.60;;;;;;4967501;28;19998;-73
2021/09/16 03:08:13;;;;;;;;;;;17.40;98.70;;;;;;4973217;28;19968;-74
2021/09/16 03:10:39;;;;;;;;;;;17.30;98.70;;;;;;4951935;28;20591;-75
2021/09/16 03:13:04;;;;;;;;;;;17.40;98.80;;;;;;4971244;28;19976;-74
2021/09/16 03:15:30;;;;;;;;;;;17.40;98.90;;;;;;4967676;28;20413;-74
2021/09/16 03:17:55;;;;;;;;;;;17.40;98.90;;;;;;4957578;28;19956;-76
2021/09/16 03:20:21;;;;;;;;;;;17.30;99.00;;;;;;5003757;28;19964;-74
2021/09/16 03:22:46;;;;;;;;;;;17.40;99.00;;;;;;4969726;28;19950;-75
2021/09/16 03:25:12;;;;;;;;;;;17.40;99.10;;;;;;4968747;28;19946;-73
2021/09/16 03:27:38;;;;;;;;;;;17.30;99.10;;;;;;4969330;28;19953;-75
2021/09/16 03:30:05;;;;;;;;;;;17.40;99.10;;;;;;4968542;28;20020;-75
2021/09/16 03:32:31;;;;;;;;;;;17.40;99.10;;;;;;4970163;28;20433;-75
2021/09/16 03:34:56;;;;;;;;;;;17.30;99.00;;;;;;4968632;28;19992;-75
2021/09/16 03:37:22;;;;;;;;;;;17.40;99.00;;;;;;4970216;28;19953;-75
2021/09/16 03:39:47;;;;;;;;;;;17.40;98.90;;;;;;4968536;28;19961;-75
2021/09/16 03:42:13;;;;;;;;;;;17.40;98.90;;;;;;4970527;28;20064;-75
2021/09/16 03:44:39;;;;;;;;;;;17.40;98.80;;;;;;4971211;28;20548;-73
2021/09/16 03:47:04;;;;;;;;;;;17.40;98.80;;;;;;4961470;28;19956;-74
2021/09/16 03:49:30;;;;;;;;;;;17.40;98.70;;;;;;4968949;28;19956;-74
2021/09/16 03:51:56;;;;;;;;;;;17.40;98.60;;;;;;4984444;28;20050;-73
2021/09/16 03:54:21;;;;;;;;;;;17.40;98.50;;;;;;4969635;28;19969;-75
2021/09/16 03:56:47;;;;;;;;;;;17.40;98.50;;;;;;4951757;28;19956;-74
2021/09/16 03:59:12;;;;;;;;;;;17.40;98.40;;;;;;4977167;28;19957;-75
2021/09/16 04:01:38;;;;;;;;;;;17.50;98.40;;;;;;4994364;28;19955;-75
2021/09/16 04:04:04;;;;;;;4.63;1.00;;;17.50;98.40;;;;;;5002543;28;20033;-75
2021/09/16 04:06:29;;;;;;;4.00;1.10;;;17.50;98.40;;;;;;4983362;28;20229;-76
2021/09/16 04:08:55;;;;;;;4.53;1.27;;;17.40;98.40;;;;;;4970782;28;20185;-75
2021/09/16 04:11:21;;;;;;;7.07;1.10;;;17.50;98.40;;;;;;4973720;28;20268;-74
2021/09/16 04:13:46;;;;;;;3.67;1.00;;;17.50;98.40;;;;;;4964608;28;20251;-75
2021/09/16 04:16:12;;;;;;;4.57;1.10;;;17.40;98.30;;;;;;5003914;28;20195;-75
2021/09/16 04:18:37;;;;;;;11.38;1.48;;;17.40;98.30;;;;;;4985088;28;20205;-75
2021/09/16 04:21:03;;;;;;;9.02;0.98;;;17.40;98.20;;;;;;4970940;28;20198;-74
2021/09/16 04:23:29;;;;;;;8.52;1.30;;;17.50;98.30;;;;;;4968121;28;20710;-75
2021/09/16 04:25:54;;;;;;;7.68;1.05;;;17.40;98.20;;;;;;4972985;28;20196;-77
2021/09/16 04:28:20;;;;;;;3.38;1.10;;;17.50;98.20;;;;;;4969145;28;20182;-76
2021/09/16 04:30:45;;;;;;;5.05;1.10;;;17.50;98.10;;;;;;4987298;28;20188;-76
2021/09/16 04:33:11;;;;;;;5.43;1.10;;;17.40;98.10;;;;;;5006189;28;20255;-77
2021/09/16 04:35:37;;;;;;;3.58;0.90;;;17.40;98.10;;;;;;4975617;28;20185;-75
2021/09/16 04:38:02;;;;;;;4.97;1.05;;;17.40;98.10;;;;;;4973028;28;20605;-76
2021/09/16 04:40:28;;;;;;;9.30;1.15;;;17.40;98.10;;;;;;4981106;28;20184;-76
2021/09/16 04:42:54;;;;;;;8.77;0.95;;;17.30;98.00;;;;;;4986591;28;20196;-76
2021/09/16 04:45:19;;;;;;;4.10;0.90;;;17.40;98.00;;;;;;4976344;28;20191;-76
2021/09/16 04:47:45;;;;;;;7.85;1.33;;;17.40;98.00;;;;;;4971874;28;20193;-74
2021/09/16 04:50:12;;;;;;;6.63;1.45;;;17.40;97.90;;;;;;4974317;28;20224;-76
2021/09/16 04:52:38;;;;;;;7.57;1.15;;;17.40;97.90;;;;;;4974846;28;20240;-75
2021/09/16 04:55:04;;;;;;;5.00;1.08;;;17.40;97.80;;;;;;4987636;28;20190;-75
2021/09/16 04:57:30;;;;;;;5.50;1.00;;;17.40;97.80;;;;;;4987488;28;20204;-75
2021/09/16 04:59:56;;;;;;;5.10;0.93;;;17.40;97.70;;;;;;4982671;28;20293;-73
2021/09/16 05:02:21;;;;;;;7.30;1.02;;;17.30;97.60;;;;;;4993067;28;20245;-73
2021/09/16 05:04:47;;;;;;;9.52;1.20;;;17.30;97.60;;;;;;4988156;28;20211;-75
2021/09/16 05:07:13;;;;;;;5.35;1.23;;;17.40;97.60;;;;;;4981003;28;20249;-75
2021/09/16 05:09:38;;;;;;;4.05;1.45;;;17.30;97.50;;;;;;4969581;28;20191;-73
2021/09/16 05:12:04;;;;;;;10.82;1.20;;;17.30;97.50;;;;;;4979618;28;20182;-75
2021/09/16 05:14:30;;;;;;;11.95;1.23;;;17.30;97.50;;;;;;4971803;28;20209;-73
2021/09/16 05:16:56;;;;;;;7.68;1.30;;;17.30;97.40;;;;;;4968116;28;20200;-73
2021/09/16 05:19:21;;;;;;;5.22;1.13;;;17.30;97.40;;;;;;4967238;28;20305;-74
2021/09/16 05:21:47;;;;;;;7.05;1.55;;;17.30;97.50;;;;;;4968333;28;20562;-74
2021/09/16 05:24:18;;;;;;;6.25;1.27;;;17.30;97.50;;;;;;4977146;28;20240;-74
2021/09/16 05:26:45;;;;;;;2.80;1.00;;;17.30;97.60;;;;;;4980785;28;20199;-71
2021/09/16 05:29:11;;;;;;;5.10;1.30;;;17.30;97.60;;;;;;4958289;28;20189;-74
2021/09/16 05:31:37;;;;;;;9.65;1.15;;;17.30;97.70;;;;;;4971333;28;20249;-74
2021/09/16 05:34:03;;;;;;;6.95;1.30;;;17.30;97.80;;;;;;4969788;28;20221;-73
2021/09/16 05:36:28;;;;;;;9.93;1.80;;;17.30;97.80;;;;;;4970113;28;20252;-75
2021/09/16 05:38:54;;;;;;;7.90;1.17;;;17.30;97.80;;;;;;4988243;28;20948;-74
2021/09/16 05:41:20;;;;;;;6.10;1.40;;;17.30;97.80;;;;;;4968655;28;20193;-75
2021/09/16 05:43:46;;;;;;;9.18;1.40;;;17.30;97.80;;;;;;4988938;28;20181;-74
2021/09/16 05:46:11;;;;;;;10.13;1.60;;;17.40;97.80;;;;;;4952392;28;20261;-74
2021/09/16 05:48:37;;;;;;;4.00;1.67;;;17.30;97.70;;;;;;4989047;28;20189;-74
2021/09/16 05:51:03;;;;;;;7.03;1.40;;;17.30;97.60;;;;;;5004612;28;20189;-74
2021/09/16 05:53:29;;;;;;;3.22;1.10;;;17.40;97.50;;;;;;4985023;28;20202;-75
2021/09/16 05:55:54;;;;;;;5.63;1.40;;;17.30;97.30;;;;;;4989136;28;20188;-76
2021/09/16 05:58:20;;;;;;;4.68;1.42;;;17.40;97.20;;;;;;4966926;28;20259;-75
2021/09/16 06:00:45;;;;;;;9.52;1.40;;;17.30;97.10;;;;;;4988753;28;20189;-75
2021/09/16 06:03:11;;;;;;;9.70;1.60;;;17.30;97.10;;;;;;4999215;28;20198;-74
2021/09/16 06:05:37;;;;;;;5.75;1.70;;;17.30;97.10;;;;;;4966827;28;20229;-73
2021/09/16 06:08:03;;;;;;;9.07;1.60;;;17.30;97.10;;;;;;4982223;28;20182;-74
2021/09/16 06:10:28;;;;;;;6.13;1.80;;;17.30;97.10;;;;;;4990194;28;20200;-73
2021/09/16 06:12:54;;;;;;;8.90;2.08;;;17.30;97.10;;;;;;4975288;28;20276;-73
2021/09/16 06:15:20;;;;;;;7.82;1.67;;;17.30;97.10;;;;;;4986250;28;20559;-73
2021/09/16 06:17:45;;;;;;;6.50;1.60;;;17.30;97.10;;;;;;5000179;28;20195;-76
2021/09/16 06:20:11;;;;;;;11.85;1.45;;;17.30;97.10;;;;;;4972594;28;20182;-76
2021/09/16 06:22:37;;;;;;;12.13;1.63;;;17.30;97.20;;;;;;4978196;28;20192;-73
2021/09/16 06:25:04;;;;;;;5.03;1.65;;;17.30;97.20;;;;;;4982796;28;20720;-74
2021/09/16 06:27:30;;;;;;;8.00;1.98;;;17.30;97.20;;;;;;4970819;28;20189;-74
2021/09/16 06:29:55;;;;;;;8.65;1.60;;;17.40;97.20;;;;;;4970083;28;20293;-74
2021/09/16 06:32:21;;;;;;;15.35;1.80;;;17.30;97.10;;;;;;4978035;28;20226;-74
2021/09/16 06:34:47;;;;;;;7.93;1.77;;;17.40;97.20;;;;;;4978102;28;20205;-74
2021/09/16 06:37:12;;;;;;;11.52;1.55;;;17.40;97.10;;;;;;4968757;28;20638;-72
2021/09/16 06:39:38;;;;;;;10.63;1.90;;;17.50;97.10;;;;;;4964998;28;20896;-74
2021/09/16 06:42:04;;;;;;;10.85;1.88;;;17.50;96.90;;;;;;4978756;28;20209;-73
2021/09/16 06:44:29;;;;;;;5.30;1.65;;;17.60;96.80;;;;;;4974843;28;20204;-74
2021/09/16 06:46:55;;;;;;;4.32;1.52;;;17.50;96.60;;;;;;4973781;28;20190;-73
2021/09/16 06:49:21;;;;;;;7.03;1.60;;;17.60;96.50;;;;;;4992217;28;20193;-74
2021/09/16 06:51:46;;;;;;;7.45;1.73;;;17.60;96.40;;;;;;4965991;28;20239;-75
2021/09/16 06:54:12;;;;;;;7.97;1.45;;;17.70;96.40;;;;;;4971562;28;20220;-73
2021/09/16 06:56:38;;;;;;;8.13;1.38;;;17.70;96.20;;;;;;4967861;28;20351;-69
2021/09/16 06:59:03;;;;;;;7.18;1.60;;;17.80;96.20;;;;;;4968342;28;20208;-69
2021/09/16 07:01:29;;;;;;;6.68;1.50;;;17.90;96.20;;;;;;4986927;28;20192;-69
2021/09/16 07:03:55;;;;;;;8.52;1.45;;;18.00;96.10;;;;;;4979355;28;20913;-67
2021/09/16 07:06:22;;;;;;;6.05;1.52;;;18.10;95.80;;;;;;4979443;28;20237;-69
2021/09/16 07:08:49;;;;;;;5.57;1.40;;;18.10;95.50;;;;;;4977919;28;21152;-69
2021/09/16 07:11:15;;;;;;;7.85;1.60;;;18.10;95.30;;;;;;4981411;28;20196;-68
2021/09/16 07:13:41;;;;;;;4.95;1.13;;;18.10;95.10;;;;;;4969825;28;20208;-70
2021/09/16 07:16:06;;;;;;;6.72;1.27;;;18.10;94.90;;;;;;4972831;28;20181;-70
2021/09/16 07:18:34;;;;;;;11.98;1.70;;;18.10;94.80;;;;;;4983594;28;20297;-69
2021/09/16 07:21:00;;;;;;;4.50;1.50;;;18.10;94.70;;;;;;4999605;28;20219;-68
2021/09/16 07:23:26;;;;;;;4.30;1.17;;;18.10;94.50;;;;;;4981865;28;20188;-69
2021/09/16 07:25:51;;;;;;;7.22;1.17;;;18.10;94.40;;;;;;5001734;28;20672;-70
2021/09/16 07:28:17;;;;;;;3.80;1.00;;;18.10;94.30;;;;;;5003027;28;20197;-69
2021/09/16 07:30:43;;;;;;;4.55;1.27;;;18.10;94.40;;;;;;5004113;28;20223;-70
2021/09/16 07:33:08;;;;;;;4.13;1.30;;;18.10;94.40;;;;;;5002043;28;20257;-70
2021/09/16 07:35:34;;;;;;;6.22;1.33;;;18.20;94.40;;;;;;4972680;28;20239;-70
2021/09/16 07:38:00;;;;;;;11.95;1.35;;;18.20;94.40;;;;;;4987798;28;20729;-68
2021/09/16 07:40:25;;;;;;;7.60;1.60;;;18.30;94.40;;;;;;4963644;28;20287;-67
2021/09/16 07:42:51;;;;;;;3.30;1.30;;;18.40;94.50;;;;;;4968483;28;20186;-68
2021/09/16 07:45:17;;;;;;;9.35;1.35;;;18.40;94.40;;;;;;4978039;28;20184;-69
2021/09/16 07:47:43;;;;;;;5.45;1.50;;;18.50;94.40;;;;;;4994372;28;20174;-72
2021/09/16 07:50:09;;;;;;;4.07;1.20;;;18.50;94.40;;;;;;4970467;28;20572;-74
2021/09/16 07:52:35;;;;;;;8.50;1.58;;;18.60;94.30;;;;;;4999908;28;20186;-74
2021/09/16 07:55:01;;;;;;;4.78;1.40;;;18.60;94.30;;;;;;5003679;28;20215;-74
2021/09/16 07:57:26;;;;;;;8.10;1.48;;;18.80;94.20;;;;;;5001224;28;20673;-73
2021/09/16 07:59:52;;;;;;;10.85;1.67;;;18.90;94.20;;;;;;4968984;28;20313;-75
2021/09/16 08:02:17;;;;;;;7.72;1.50;;;19.00;94.20;;;;;;4974143;28;20315;-72
2021/09/16 08:04:43;;;;;;;6.25;1.55;;;19.10;94.00;;;;;;4986185;28;20682;-74
2021/09/16 08:07:09;;;;;;;5.10;1.48;;;19.10;93.70;;;;;;4969881;28;20236;-74
2021/09/16 08:09:35;;;;;;;6.53;1.60;;;19.20;93.70;;;;;;4975595;28;20256;-74
2021/09/16 08:12:01;;;;;;;5.75;1.20;;;19.10;93.60;;;;;;4971054;28;20194;-75
2021/09/16 08:14:26;;;;;;;5.30;1.60;;;19.10;93.40;;;;;;4974785;28;20225;-73
2021/09/16 08:16:52;;;;;;;6.60;1.30;;;19.20;93.40;;;;;;4969890;28;20186;-74
2021/09/16 08:19:18;;;;;;;2.92;1.00;;;19.30;93.10;;;;;;4971433;28;20184;-74
2021/09/16 08:21:44;;;;;;;3.67;1.27;;;19.40;92.80;;;;;;4970574;28;20186;-74
2021/09/16 08:24:09;;;;;;;3.00;1.13;;;19.40;92.60;;;;;;4975554;28;20688;-73
2021/09/16 08:26:35;;;;;;;3.03;1.20;;;19.50;92.50;;;;;;5007103;28;20232;-74
2021/09/16 08:29:01;;;;;;;6.43;1.17;;;19.70;92.50;;;;;;4970385;28;20646;-74
2021/09/16 08:31:27;;;;;;;7.97;1.80;;;19.80;92.10;;;;;;4981791;28;20188;-74
2021/09/16 08:33:53;;;;;;;4.72;1.20;;;19.90;92.20;;;;;;5007633;28;20207;-73
2021/09/16 08:36:18;;;;;;;4.75;1.10;;;20.10;92.20;;;;;;5005237;28;20244;-72
2021/09/16 08:38:44;;;;;;;4.75;1.08;;;20.20;91.80;;;;;;4982222;28;20267;-73
2021/09/16 08:41:10;;;;;;;4.85;0.90;;;20.20;91.70;;;;;;4979184;28;20181;-74
2021/09/16 08:43:38;;;;;;;4.55;1.10;;;20.30;91.50;;;;;;4970531;28;20197;-74
2021/09/16 08:46:04;;;;;;;3.67;1.10;;;20.40;91.50;;;;;;4964227;28;20184;-73
2021/09/16 08:48:30;;;;;;;4.20;1.00;;;21.00;91.60;;;;;;4982384;28;20206;-75
2021/09/16 08:50:57;;;;;;;6.60;0.93;;;21.60;90.60;;;;;;4974506;28;20896;-75
2021/09/16 08:53:30;;;;;;;5.43;1.15;;;22.00;89.00;;;;;;4960172;28;20349;-74
2021/09/16 08:55:59;;;;;;;7.45;1.35;;;22.10;87.40;;;;;;5005967;28;20283;-73
2021/09/16 08:58:28;;;;;;;5.68;1.20;;;22.10;86.60;;;;;;4957159;28;20684;-74
2021/09/16 09:00:54;;;;;;;5.55;1.10;;;22.10;86.00;;;;;;4955971;28;20197;-73
2021/09/16 09:03:20;;;;;;;5.57;1.48;;;22.20;85.80;;;;;;4971311;28;20194;-73
2021/09/16 09:05:46;;;;;;;6.45;1.20;;;22.60;85.10;;;;;;4971078;28;20221;-73
2021/09/16 09:08:12;;;;;;;3.75;1.25;;;22.80;83.50;;;;;;4990920;28;20244;-74
2021/09/16 09:10:49;;;;;;;2.10;1.13;;;23.20;83.00;;;;;;4968358;28;20185;-76
2021/09/16 09:13:18;;;;;;;3.05;1.20;;;23.90;81.00;;;;;;4970036;28;20213;-72
2021/09/16 09:15:47;;;;;;;8.95;1.20;;;24.50;78.90;;;;;;4973698;28;20187;-73
2021/09/16 09:18:19;;;;;;;3.05;0.95;;;25.10;76.80;;;;;;4994540;28;20583;-72
2021/09/16 09:21:06;;;;;;;3.95;1.10;;;25.60;74.00;;;;;;4978480;28;20284;-73
2021/09/16 09:23:40;;;;;;;4.80;1.10;;;25.50;72.00;;;;;;4996679;28;20192;-71
2021/09/16 09:26:26;;;;;;;11.20;1.40;;;25.30;72.10;;;;;;4980182;28;20265;-71
2021/09/16 09:29:17;;;;;;;4.90;1.50;;;25.40;71.80;;;;;;4990937;28;20197;-72
2021/09/16 09:32:00;;;;;;;5.72;1.13;;;25.70;71.40;;;;;;4998534;28;20262;-71
2021/09/16 09:34:34;;;;;;;3.67;1.20;;;25.70;70.10;;;;;;4985479;28;20213;-71
2021/09/16 09:37:18;;;;;;;2.60;1.00;;;25.60;69.30;;;;;;4993740;28;20193;-71
2021/09/16 09:39:47;;;;;;;2.80;1.05;;;26.00;69.00;;;;;;5001095;28;20117;-72
2021/09/16 09:42:28;;;;;;;3.40;0.93;;;26.70;67.60;;;;;;4970823;28;20627;-75
2021/09/16 09:44:55;;;;;;;;;;;27.80;64.20;;;;;;4995478;28;20294;-73
2021/09/16 09:47:39;;;;;;;;;;;28.50;61.40;;;;;;4979476;28;19964;-73
2021/09/16 09:50:06;;;;;;;;;;;29.30;58.80;;;;;;5002380;28;20278;-73
2021/09/16 09:52:31;;;;;;;3.25;0.90;;;30.10;56.60;;;;;;4979125;28;20389;-74
2021/09/16 09:54:57;;;;;;;;;;;30.90;54.00;;;;;;4958245;28;20681;-74
2021/09/16 09:57:22;;;;;;;;;;;31.40;51.70;;;;;;4959077;28;19910;-73
2021/09/16 09:59:52;;;;;;;;;;;31.80;50.10;;;;;;4982642;28;19914;-73
2021/09/16 10:02:18;;;;;;;4.57;1.10;;;32.10;48.90;;;;;;4968766;28;20407;-74
2021/09/16 10:04:46;;;;;;;5.30;1.15;;;32.50;47.90;;;;;;4971653;28;20045;-72
2021/09/16 10:07:29;;;;;;;3.72;1.00;;;32.90;46.90;;;;;;4963440;28;20150;-71
2021/09/16 10:09:56;;;;;;;4.53;0.82;;;32.90;45.40;;;;;;4992845;28;20283;-72
2021/09/16 10:12:22;;;;;;;;;;;32.90;45.00;;;;;;4986115;28;20129;-69
2021/09/16 10:14:47;;;;;;;;;;;33.10;44.60;;;;;;4969409;28;20406;-72
2021/09/16 10:17:13;;;;;;;4.43;1.00;;;32.90;44.60;;;;;;4969171;28;19910;-69
2021/09/16 10:19:41;;;;;;;2.10;0.80;;;32.40;45.10;;;;;;4970016;28;20698;-72
2021/09/16 10:22:14;;;;;;;3.50;1.10;;;31.90;45.90;;;;;;4969184;28;20150;-71
2021/09/16 10:24:40;;;;;;;6.25;1.40;;;31.30;46.30;;;;;;4998331;28;20249;-70
2021/09/16 10:27:29;;;;;;;5.15;1.10;;;30.60;47.00;;;;;;4999931;28;20176;-69
2021/09/16 10:29:55;;;;;;;2.80;0.93;;;30.00;47.60;;;;;;4968480;28;20668;-71
2021/09/16 10:32:20;;;;;;;3.22;0.82;;;29.50;48.60;;;;;;4973808;28;20197;-69
2021/09/16 10:34:56;;;;;;;19.20;1.20;;;29.30;49.40;;;;;;4968808;28;20228;-72
2021/09/16 10:37:23;;;;;;;5.43;1.30;;;29.00;49.90;;;;;;4990362;28;20242;-70
2021/09/16 10:39:50;;;;;;;11.70;1.20;;;28.80;50.50;;;;;;5004813;28;20238;-69
2021/09/16 10:42:17;;;;;;;8.07;1.10;;;28.70;51.20;;;;;;4988142;28;20540;-71
2021/09/16 10:44:43;;;;;;;10.95;1.20;;;28.50;51.70;;;;;;4982790;28;20189;-71
2021/09/16 10:47:23;;;;;;;6.47;1.20;;;28.60;52.00;;;;;;4980152;28;20223;-69
2021/09/16 10:49:50;;;;;;;5.05;0.90;;;28.80;51.60;;;;;;5002929;28;20530;-72
2021/09/16 10:52:18;;;;;;;2.78;0.90;;;29.20;51.30;;;;;;5004871;28;20192;-73
2021/09/16 10:54:55;;;;;;;6.50;1.23;;;29.20;50.60;;;;;;5003094;28;20214;-71
2021/09/16 10:57:29;;;;;;;6.15;1.10;;;29.20;50.60;;;;;;4982089;28;20181;-69
2021/09/16 10:59:55;;;;;;;2.85;1.10;;;29.20;49.80;;;;;;4969845;28;20310;-72
2021/09/16 11:02:21;;;;;;;3.58;1.10;;;28.80;50.20;;;;;;4957042;28;20268;-70
2021/09/16 11:05:10;;;;;;;4.32;1.45;;;28.70;51.10;;;;;;4968407;28;20193;-70
2021/09/16 11:07:39;;;;;;;2.05;1.10;;;28.80;50.80;;;;;;4942027;29;20222;-69
2021/09/16 11:10:13;;;;;;;2.10;0.90;;;28.80;50.80;;;;;;4944633;28;20202;-71
2021/09/16 11:12:40;;;;;;;3.13;1.10;;;28.60;50.50;;;;;;4964186;28;20197;-70
2021/09/16 11:15:06;;;;;;;3.58;0.90;;;28.60;50.70;;;;;;4946416;28;20833;-70
2021/09/16 11:17:32;;;;;;;3.58;0.90;;;28.70;50.50;;;;;;4943880;28;20193;-71
2021/09/16 11:19:59;;;;;;;2.85;0.98;;;29.00;50.20;;;;;;4945360;28;20190;-71
2021/09/16 11:22:24;;;;;;;;;;;29.40;49.60;;;;;;4946088;28;20195;-68
2021/09/16 11:24:55;;;;;;;3.03;0.90;;;29.80;48.70;;;;;;4963036;28;19917;-68
2021/09/16 11:27:32;;;;;;;3.08;0.82;;;30.30;47.80;;;;;;4945220;28;20221;-72
2021/09/16 11:29:59;;;;;;;2.72;0.80;;;30.90;46.80;;;;;;4963646;28;20661;-71
2021/09/16 11:32:33;;;;;;;4.28;0.95;;;31.70;45.90;;;;;;4944516;28;20603;-70
2021/09/16 11:35:10;;;;;;;2.72;0.80;;;32.20;44.20;;;;;;4945525;28;20255;-69
2021/09/16 11:37:43;;;;;;;10.75;0.90;;;32.50;43.30;;;;;;4945180;28;20631;-70
2021/09/16 11:40:14;;;;;;;2.65;0.90;;;32.80;42.60;;;;;;4947050;28;20204;-70
2021/09/16 11:42:45;;;;;;;6.40;1.10;;;32.80;42.00;;;;;;4947078;28;20698;-68
2021/09/16 11:45:14;;;;;;;3.10;1.20;;;32.70;42.00;;;;;;4945265;28;20199;-69
2021/09/16 11:47:46;;;;;;;2.40;1.02;;;32.80;42.40;;;;;;4949009;28;20250;-72
2021/09/16 11:50:38;;;;;;;2.90;0.98;;;33.00;42.10;;;;;;4945702;28;20292;-71
2021/09/16 11:53:10;;;;;;;2.95;0.90;;;33.10;41.70;;;;;;4944292;28;20268;-72
2021/09/16 11:55:41;;;;;;;3.53;1.10;;;32.90;41.60;;;;;;4962041;28;20186;-71
2021/09/16 11:58:13;;;;;;;2.88;1.00;;;32.80;41.40;;;;;;4946834;28;20957;-71
2021/09/16 12:00:47;;;;;;;6.90;1.25;;;32.70;41.70;;;;;;4944567;28;20182;-70
2021/09/16 12:03:27;;;;;;;4.38;1.10;;;32.50;42.00;;;;;;4963556;28;20221;-71
2021/09/16 12:05:58;;;;;;;4.40;1.10;;;32.60;42.20;;;;;;4953621;28;20280;-71
2021/09/16 12:08:32;;;;;;;3.10;1.27;;;32.70;42.00;;;;;;4970355;28;20163;-69
2021/09/16 12:11:22;;;;;;;5.75;1.80;;;32.70;41.60;;;;;;4969093;28;20193;-71
2021/09/16 12:13:48;;;;;;;3.67;1.60;;;32.60;41.50;;;;;;4974950;28;20302;-69
2021/09/16 12:16:20;;;;;;;5.47;1.73;;;32.50;42.10;;;;;;4971567;28;20185;-71
2021/09/16 12:18:48;;;;;;;3.78;1.67;;;32.30;42.50;;;;;;4990909;28;20540;-70
2021/09/16 12:21:22;;;;;;;5.18;1.77;;;32.20;43.00;;;;;;4994461;28;20188;-70
2021/09/16 12:23:53;;;;;;;3.63;1.60;;;32.30;43.00;;;;;;5003045;28;20539;-73
2021/09/16 12:26:27;;;;;;;4.15;1.80;;;32.40;43.00;;;;;;4966601;28;20270;-72
2021/09/16 12:28:54;;;;;;;3.53;1.95;;;32.20;42.90;;;;;;4964225;28;20276;-74
2021/09/16 12:31:24;;;;;;;4.28;1.70;;;32.40;43.20;;;;;;4977790;28;20197;-74
2021/09/16 12:34:14;;;;;;;5.22;2.40;;;32.30;43.20;;;;;;4986265;28;20432;-75
2021/09/16 12:37:01;;;;;;;6.78;2.35;;;33.40;40.00;;;;;;4982814;28;20204;-74
2021/09/16 12:39:28;;;;;;;7.57;2.55;;;32.40;41.60;;;;;;5002498;28;20205;-74
2021/09/16 12:41:53;;;;;;;4.25;2.53;;;32.00;42.80;;;;;;4976252;28;20196;-70
2021/09/16 12:44:45;;;;;;;7.45;2.90;;;31.50;43.00;;;;;;4969569;28;20189;-69
2021/09/16 12:47:16;;;;;;;5.88;2.50;;;31.10;43.60;;;;;;4969059;28;20205;-71
2021/09/16 12:49:41;;;;;;;6.72;2.63;;;31.00;43.90;;;;;;4983524;28;20227;-71
2021/09/16 12:52:14;;;;;;;9.30;2.72;;;31.30;43.60;;;;;;4997192;28;20230;-70
2021/09/16 12:54:51;;;;;;;5.00;2.47;;;31.50;43.40;;;;;;5006147;28;20216;-74
2021/09/16 12:57:20;;;;;;;8.45;2.70;;;31.40;43.70;;;;;;4994266;28;20625;-74
2021/09/16 12:59:51;;;;;;;5.50;2.60;;;31.00;43.90;;;;;;4969229;28;20420;-74
2021/09/16 13:02:19;;;;;;;5.47;2.92;;;31.60;42.80;;;;;;4983378;28;20428;-73
2021/09/16 13:05:12;;;;;;;9.10;3.70;;;31.60;43.30;;;;;;4974820;28;20193;-74
2021/09/16 13:07:40;;;;;;;6.50;4.05;;;30.70;44.70;;;;;;4963459;28;20229;-73
2021/09/16 13:10:22;;;;;;;9.20;4.95;;;30.10;46.10;;;;;;4989728;28;20202;-74
2021/09/16 13:12:51;;;;;;;6.15;4.88;;;29.70;46.90;;;;;;4973777;28;20227;-73
2021/09/16 13:15:18;;;;;;;9.43;5.68;;;29.40;47.90;;;;;;4980215;28;20619;-73
2021/09/16 13:17:45;;;;;;;8.48;5.20;;;29.20;48.40;;;;;;4984404;28;20196;-72